createdAt,value
2023-03-29T00:01:53.730Z,6.70
2023-03-29T00:04:56.656Z,6.60
2023-03-29T00:08:01.796Z,6.70
2023-03-29T00:11:04.092Z,6.50
2023-03-29T00:14:06.088Z,6.70
2023-03-29T00:17:07.840Z,6.30
2023-03-29T00:20:10.576Z,6.50
2023-03-29T00:23:12.265Z,6.70
2023-03-29T00:26:13.809Z,6.80
2023-03-29T00:29:15.531Z,6.60
2023-03-29T00:32:17.182Z,6.60
2023-03-29T00:35:19.334Z,6.60
2023-03-29T00:38:21.034Z,6.60
2023-03-29T00:41:22.654Z,6.70
2023-03-29T00:44:56.368Z,6.80
2023-03-29T00:48:03.142Z,6.80
2023-03-29T00:51:10.007Z,6.80
2023-03-29T00:54:15.763Z,6.80
2023-03-29T00:57:21.505Z,6.90
2023-03-29T01:00:31.687Z,6.80
2023-03-29T01:03:41.380Z,6.80
2023-03-29T01:06:50.893Z,6.70
2023-03-29T01:10:12.410Z,6.70
2023-03-29T01:13:21.721Z,7.10
2023-03-29T01:16:25.656Z,6.90
2023-03-29T01:19:33.842Z,7.00
2023-03-29T01:22:57.154Z,7.00
2023-03-29T01:26:13.950Z,7.00
2023-03-29T01:29:36.924Z,6.90
2023-03-29T01:32:42.053Z,6.70
2023-03-29T01:35:49.210Z,6.90
2023-03-29T01:38:54.528Z,6.80
2023-03-29T01:42:02.048Z,6.80
2023-03-29T01:45:22.250Z,6.90
2023-03-29T01:48:37.599Z,6.80
2023-03-29T01:51:44.868Z,6.90
2023-03-29T01:54:54.542Z,7.00
2023-03-29T01:57:59.103Z,7.20
2023-03-29T02:01:05.603Z,6.70
2023-03-29T02:04:13.390Z,6.90
2023-03-29T02:07:17.545Z,6.90
2023-03-29T02:10:20.126Z,7.20
2023-03-29T02:13:22.026Z,7.20
2023-03-29T02:16:23.963Z,6.70
2023-03-29T02:19:25.825Z,6.90
2023-03-29T02:22:36.523Z,7.10
2023-03-29T02:25:38.374Z,7.10
2023-03-29T02:28:40.763Z,7.20
2023-03-29T02:31:55.160Z,7.40
2023-03-29T02:35:13.193Z,7.00
2023-03-29T02:38:15.219Z,7.20
2023-03-29T02:41:17.924Z,7.20
2023-03-29T02:44:29.613Z,6.90
2023-03-29T02:47:35.598Z,7.20
2023-03-29T02:50:40.545Z,7.20
2023-03-29T02:54:03.067Z,7.10
2023-03-29T02:57:06.497Z,7.00
2023-03-29T03:00:10.100Z,7.20
2023-03-29T03:03:13.187Z,7.70
2023-03-29T03:06:15.185Z,7.40
2023-03-29T03:09:16.834Z,7.10
2023-03-29T03:12:18.397Z,8.80
2023-03-29T03:15:20.822Z,7.20
2023-03-29T03:18:23.252Z,7.20
2023-03-29T03:21:25.614Z,7.50
2023-03-29T03:24:28.079Z,7.40
2023-03-29T03:27:29.650Z,7.60
2023-03-29T03:30:31.521Z,7.40
2023-03-29T03:33:34.043Z,7.50
2023-03-29T03:36:35.742Z,8.70
2023-03-29T03:40:15.698Z,7.30
2023-03-29T03:44:06.209Z,7.50
2023-03-29T03:46:41.994Z,7.30
2023-03-29T03:49:43.796Z,7.20
2023-03-29T03:52:45.397Z,7.50
2023-03-29T03:55:55.775Z,7.60
2023-03-29T03:58:57.368Z,7.50
2023-03-29T04:02:00.234Z,7.70
2023-03-29T04:05:03.391Z,7.50
2023-03-29T04:08:06.623Z,7.30
2023-03-29T04:11:08.206Z,7.30
2023-03-29T04:14:10.202Z,7.30
2023-03-29T04:17:12.109Z,7.70
2023-03-29T04:20:14.811Z,7.10
2023-03-29T04:23:17.018Z,8.00
2023-03-29T04:26:18.750Z,7.60
2023-03-29T04:29:20.290Z,7.50
2023-03-29T04:32:21.874Z,7.60
2023-03-29T04:35:23.830Z,7.50
2023-03-29T04:38:26.613Z,7.80
2023-03-29T04:41:28.881Z,7.50
2023-03-29T04:44:33.323Z,7.50
2023-03-29T04:47:36.325Z,7.20
2023-03-29T04:50:38.052Z,7.60
2023-03-29T04:53:39.916Z,7.40
2023-03-29T04:56:41.624Z,7.30
2023-03-29T04:59:43.297Z,7.10
2023-03-29T05:02:45.340Z,7.30
2023-03-29T05:05:47.029Z,7.00
2023-03-29T05:08:48.766Z,7.30
2023-03-29T05:11:50.644Z,7.20
2023-03-29T05:14:52.405Z,7.30
2023-03-29T05:17:54.316Z,7.00
2023-03-29T05:20:56.811Z,7.10
2023-03-29T05:23:58.606Z,7.10
2023-03-29T05:27:00.631Z,6.80
2023-03-29T05:30:02.360Z,7.20
2023-03-29T05:33:05.539Z,7.10
2023-03-29T05:36:13.389Z,6.90
2023-03-29T05:39:15.352Z,7.10
2023-03-29T05:42:19.130Z,7.30
2023-03-29T05:45:20.819Z,6.90
2023-03-29T05:48:23.674Z,7.40
2023-03-29T05:51:25.252Z,7.10
2023-03-29T05:54:27.146Z,7.20
2023-03-29T05:57:28.799Z,7.60
2023-03-29T06:00:31.829Z,7.60
2023-03-29T06:03:33.612Z,7.40
2023-03-29T06:06:36.268Z,7.70
2023-03-29T06:09:39.519Z,7.60
2023-03-29T06:12:41.786Z,7.40
2023-03-29T06:15:43.361Z,7.80
2023-03-29T06:18:45.156Z,7.60
2023-03-29T06:21:47.196Z,7.60
2023-03-29T06:24:48.911Z,7.60
2023-03-29T06:27:52.017Z,7.60
2023-03-29T06:30:56.158Z,7.70
2023-03-29T06:33:58.268Z,7.80
2023-03-29T06:36:59.970Z,8.10
2023-03-29T06:40:05.692Z,8.20
2023-03-29T06:43:07.326Z,8.10
2023-03-29T06:46:11.916Z,7.80
2023-03-29T06:49:13.700Z,8.40
2023-03-29T06:52:16.429Z,8.10
2023-03-29T06:55:18.686Z,8.00
2023-03-29T06:58:20.518Z,8.20
2023-03-29T07:01:22.721Z,8.30
2023-03-29T07:04:24.759Z,8.50
2023-03-29T07:07:33.056Z,8.00
2023-03-29T07:10:43.668Z,8.40
2023-03-29T07:13:46.150Z,8.50
2023-03-29T07:16:48.700Z,8.90
2023-03-29T07:19:50.313Z,8.60
2023-03-29T07:22:51.922Z,8.20
2023-03-29T07:25:53.959Z,8.30
2023-03-29T07:28:55.601Z,8.60
2023-03-29T07:31:57.266Z,8.60
2023-03-29T07:34:58.939Z,8.60
2023-03-29T07:38:00.522Z,8.60
2023-03-29T07:41:05.103Z,9.00
2023-03-29T07:44:08.941Z,8.80
2023-03-29T07:47:10.549Z,9.20
2023-03-29T07:50:12.478Z,8.90
2023-03-29T07:53:14.028Z,9.40
2023-03-29T07:56:15.853Z,9.10
2023-03-29T07:59:17.540Z,9.40
2023-03-29T08:02:19.532Z,9.30
2023-03-29T08:05:37.581Z,9.60
2023-03-29T08:08:42.124Z,9.80
2023-03-29T08:11:43.742Z,9.80
2023-03-29T08:14:46.082Z,9.70
2023-03-29T08:17:47.698Z,11.00
2023-03-29T08:20:50.900Z,9.80
2023-03-29T08:23:52.565Z,9.70
2023-03-29T08:26:54.217Z,8.30
2023-03-29T08:29:56.130Z,10.10
2023-03-29T08:32:58.019Z,10.20
2023-03-29T08:35:59.716Z,9.80
2023-03-29T08:39:03.145Z,10.30
2023-03-29T08:42:29.689Z,10.10
2023-03-29T08:45:46.936Z,9.90
2023-03-29T08:49:02.579Z,10.00
2023-03-29T08:52:11.837Z,10.30
2023-03-29T08:55:45.202Z,9.70
2023-03-29T08:58:48.592Z,10.10
2023-03-29T09:01:53.877Z,9.30
2023-03-29T09:05:03.032Z,10.40
2023-03-29T09:08:13.262Z,10.30
2023-03-29T09:11:17.918Z,10.30
2023-03-29T09:14:28.343Z,10.70
2023-03-29T09:17:54.997Z,10.50
2023-03-29T09:21:27.077Z,10.70
2023-03-29T09:24:49.842Z,10.80
2023-03-29T09:28:19.498Z,10.80
2023-03-29T09:31:37.069Z,11.10
2023-03-29T09:34:44.754Z,11.30
2023-03-29T09:37:48.897Z,11.10
2023-03-29T09:41:00.217Z,11.60
2023-03-29T09:44:10.859Z,13.70
2023-03-29T09:47:28.123Z,11.50
2023-03-29T09:50:42.224Z,11.50
2023-03-29T09:53:43.794Z,12.50
2023-03-29T09:56:45.408Z,11.40
2023-03-29T09:59:50.459Z,11.20
2023-03-29T10:02:54.469Z,13.20
2023-03-29T10:05:59.439Z,13.10
2023-03-29T10:09:02.126Z,12.30
2023-03-29T10:12:06.755Z,12.40
2023-03-29T10:15:23.102Z,12.60
2023-03-29T10:18:32.387Z,12.50
2023-03-29T10:21:33.980Z,12.60
2023-03-29T10:24:35.866Z,12.40
2023-03-29T10:27:41.499Z,12.40
2023-03-29T10:30:44.917Z,12.50
2023-03-29T10:33:52.961Z,13.00
2023-03-29T10:37:01.071Z,12.80
2023-03-29T10:40:03.774Z,12.60
2023-03-29T10:43:14.570Z,13.40
2023-03-29T10:46:19.782Z,13.10
2023-03-29T10:49:23.392Z,13.40
2023-03-29T10:52:25.939Z,13.20
2023-03-29T10:55:36.708Z,13.20
2023-03-29T10:58:46.022Z,13.60
2023-03-29T11:02:01.104Z,14.50
2023-03-29T11:05:26.140Z,15.40
2023-03-29T11:08:33.439Z,13.90
2023-03-29T11:12:15.755Z,13.70
2023-03-29T11:15:17.800Z,14.20
2023-03-29T11:18:56.350Z,14.00
2023-03-29T11:22:09.834Z,14.40
2023-03-29T11:25:43.379Z,14.00
2023-03-29T11:29:16.061Z,14.30
2023-03-29T11:32:38.139Z,14.10
2023-03-29T11:35:46.472Z,14.10
2023-03-29T11:39:13.101Z,14.50
2023-03-29T11:42:29.257Z,13.80
2023-03-29T11:45:43.366Z,14.70
2023-03-29T11:48:59.248Z,14.40
2023-03-29T11:52:17.462Z,14.20
2023-03-29T11:55:23.805Z,13.80
2023-03-29T11:58:38.301Z,14.60
2023-03-29T12:01:49.672Z,14.60
2023-03-29T12:04:57.558Z,14.60
2023-03-29T12:08:13.748Z,15.70
2023-03-29T12:11:40.319Z,15.30
2023-03-29T12:14:56.425Z,16.60
2023-03-29T12:18:24.269Z,15.20
2023-03-29T12:21:29.038Z,15.00
2023-03-29T12:24:33.184Z,15.00
2023-03-29T12:27:59.443Z,14.30
2023-03-29T12:31:36.590Z,15.20
2023-03-29T12:35:03.933Z,14.70
2023-03-29T12:38:23.918Z,15.20
2023-03-29T12:41:25.937Z,15.20
2023-03-29T12:44:27.844Z,15.20
2023-03-29T12:47:43.143Z,15.30
2023-03-29T12:50:51.211Z,15.30
2023-03-29T12:53:55.032Z,15.70
2023-03-29T12:57:20.367Z,15.70
2023-03-29T13:00:44.530Z,16.00
2023-03-29T13:03:48.299Z,15.60
2023-03-29T13:07:02.830Z,15.40
2023-03-29T13:10:33.832Z,16.00
2023-03-29T13:13:38.955Z,17.90
2023-03-29T13:16:41.094Z,16.10
2023-03-29T13:20:09.320Z,16.50
2023-03-29T13:23:26.310Z,16.10
2023-03-29T13:26:45.218Z,16.10
2023-03-29T13:30:05.684Z,15.80
2023-03-29T13:33:22.886Z,15.60
2023-03-29T13:36:56.564Z,15.40
2023-03-29T13:39:58.186Z,15.90
2023-03-29T13:43:19.537Z,17.20
2023-03-29T13:46:41.301Z,15.70
2023-03-29T13:49:50.315Z,17.60
2023-03-29T13:53:03.888Z,16.10
2023-03-29T13:56:10.976Z,16.50
2023-03-29T13:59:18.839Z,17.80
2023-03-29T14:02:57.892Z,15.90
2023-03-29T14:06:02.088Z,15.80
2023-03-29T14:09:07.121Z,15.80
2023-03-29T14:12:12.657Z,15.60
2023-03-29T14:15:23.633Z,16.00
2023-03-29T14:18:27.541Z,15.80
2023-03-29T14:21:29.486Z,16.00
2023-03-29T14:24:38.272Z,16.70
2023-03-29T14:27:41.614Z,16.10
2023-03-29T14:30:46.982Z,15.70
2023-03-29T14:33:59.266Z,16.50
2023-03-29T14:37:01.058Z,16.80
2023-03-29T14:40:07.676Z,15.70
2023-03-29T14:43:11.005Z,15.80
2023-03-29T14:46:15.374Z,16.50
2023-03-29T14:49:19.297Z,15.50
2023-03-29T14:52:21.553Z,15.70
2023-03-29T14:55:23.989Z,16.40
2023-03-29T14:58:32.649Z,15.70
2023-03-29T15:01:43.902Z,15.70
2023-03-29T15:04:54.260Z,16.10
2023-03-29T15:07:57.240Z,15.90
2023-03-29T15:10:59.403Z,15.60
2023-03-29T15:14:13.334Z,15.30
2023-03-29T15:17:43.006Z,15.60
2023-03-29T15:20:51.777Z,15.40
2023-03-29T15:23:57.214Z,15.90
2023-03-29T15:27:11.035Z,15.30
2023-03-29T15:30:16.667Z,15.70
2023-03-29T15:33:25.828Z,15.50
2023-03-29T15:36:27.623Z,16.70
2023-03-29T15:39:29.629Z,17.70
2023-03-29T15:42:31.421Z,15.60
2023-03-29T15:45:33.313Z,15.90
2023-03-29T15:48:34.881Z,15.60
2023-03-29T15:51:36.437Z,15.40
2023-03-29T15:54:37.999Z,15.20
2023-03-29T15:57:41.530Z,15.30
2023-03-29T16:00:46.479Z,17.40
2023-03-29T16:03:48.293Z,15.40
2023-03-29T16:06:55.485Z,15.30
2023-03-29T16:09:57.726Z,15.10
2023-03-29T16:12:59.321Z,15.10
2023-03-29T16:16:01.101Z,15.00
2023-03-29T16:19:02.866Z,15.20
2023-03-29T16:22:07.454Z,15.60
2023-03-29T16:25:14.670Z,15.20
2023-03-29T16:28:16.338Z,16.60
2023-03-29T16:31:17.988Z,15.30
2023-03-29T16:34:20.314Z,15.40
2023-03-29T16:37:21.846Z,16.90
2023-03-29T16:40:23.851Z,15.40
2023-03-29T16:43:25.944Z,15.20
2023-03-29T16:46:27.572Z,15.80
2023-03-29T16:49:29.174Z,15.50
2023-03-29T16:52:31.143Z,17.00
2023-03-29T16:55:32.882Z,16.10
2023-03-29T16:58:34.465Z,18.30
2023-03-29T17:01:36.611Z,16.20
2023-03-29T17:04:38.615Z,16.10
2023-03-29T17:07:40.372Z,16.20
2023-03-29T17:10:42.232Z,16.20
2023-03-29T17:13:44.451Z,16.10
2023-03-29T17:16:46.290Z,16.30
2023-03-29T17:19:48.001Z,16.30
2023-03-29T17:22:52.064Z,16.00
2023-03-29T17:25:57.264Z,15.90
2023-03-29T17:28:58.827Z,15.80
2023-03-29T17:32:00.799Z,15.90
2023-03-29T17:35:03.345Z,15.80
2023-03-29T17:38:05.078Z,16.20
2023-03-29T17:41:08.215Z,17.20
2023-03-29T17:44:09.843Z,17.40
2023-03-29T17:47:11.427Z,16.10
2023-03-29T17:50:13.316Z,17.30
2023-03-29T17:53:15.238Z,15.70
2023-03-29T17:56:17.406Z,15.70
2023-03-29T17:59:18.998Z,15.80
2023-03-29T18:02:23.254Z,15.70
2023-03-29T18:05:25.079Z,15.50
2023-03-29T18:08:26.701Z,15.80
2023-03-29T18:11:28.566Z,16.90
2023-03-29T18:14:30.229Z,15.50
2023-03-29T18:17:31.959Z,15.50
2023-03-29T18:20:33.647Z,15.70
2023-03-29T18:23:35.969Z,15.10
2023-03-29T18:26:37.575Z,16.50
2023-03-29T18:29:39.268Z,14.90
2023-03-29T18:32:40.861Z,15.30
2023-03-29T18:35:48.428Z,14.70
2023-03-29T18:38:50.369Z,15.20
2023-03-29T18:41:51.924Z,15.10
2023-03-29T18:44:53.817Z,14.80
2023-03-29T18:47:55.562Z,15.30
2023-03-29T18:50:57.741Z,15.30
2023-03-29T18:53:59.347Z,15.50
2023-03-29T18:57:01.163Z,15.00
2023-03-29T19:00:08.017Z,15.40
2023-03-29T19:03:22.186Z,17.10
2023-03-29T19:06:34.293Z,13.90
2023-03-29T19:09:43.128Z,16.60
2023-03-29T19:12:44.797Z,17.50
2023-03-29T19:15:50.204Z,14.70
2023-03-29T19:18:52.149Z,14.70
2023-03-29T19:21:53.977Z,16.20
2023-03-29T19:24:55.575Z,15.40
2023-03-29T19:27:57.629Z,14.80
2023-03-29T19:31:01.277Z,16.30
2023-03-29T19:34:03.478Z,14.60
2023-03-29T19:37:05.153Z,14.90
2023-03-29T19:40:09.458Z,14.30
2023-03-29T19:43:16.244Z,14.60
2023-03-29T19:46:17.866Z,14.70
2023-03-29T19:49:19.582Z,14.60
2023-03-29T19:52:23.832Z,14.70
2023-03-29T19:55:26.660Z,14.70
2023-03-29T19:58:28.249Z,14.90
2023-03-29T20:01:32.140Z,16.10
2023-03-29T20:04:35.246Z,14.70
2023-03-29T20:07:36.846Z,14.40
2023-03-29T20:10:38.441Z,14.30
2023-03-29T20:13:44.805Z,14.30
2023-03-29T20:16:46.670Z,14.60
2023-03-29T20:19:48.351Z,14.40
2023-03-29T20:22:50.562Z,14.50
2023-03-29T20:25:52.493Z,14.20
2023-03-29T20:28:54.347Z,14.10
2023-03-29T20:31:56.609Z,14.50
2023-03-29T20:34:58.187Z,14.60
2023-03-29T20:38:00.085Z,14.00
2023-03-29T20:41:03.961Z,14.00
2023-03-29T20:44:05.864Z,14.20
2023-03-29T20:47:08.166Z,14.10
2023-03-29T20:50:10.461Z,14.40
2023-03-29T20:53:12.148Z,14.20
2023-03-29T20:56:14.623Z,14.10
2023-03-29T20:59:16.186Z,14.20
2023-03-29T21:02:21.675Z,15.50
2023-03-29T21:05:23.994Z,14.20
2023-03-29T21:08:28.494Z,14.10
2023-03-29T21:11:30.136Z,14.10
2023-03-29T21:14:32.913Z,13.80
2023-03-29T21:17:34.676Z,14.00
2023-03-29T21:20:37.538Z,14.20
2023-03-29T21:23:40.700Z,14.20
2023-03-29T21:26:42.347Z,13.80
2023-03-29T21:29:44.101Z,15.00
2023-03-29T21:32:45.694Z,14.10
2023-03-29T21:35:51.004Z,14.20
2023-03-29T21:38:53.682Z,14.60
2023-03-29T21:41:55.839Z,13.60
2023-03-29T21:44:57.410Z,13.70
2023-03-29T21:47:59.054Z,14.10
2023-03-29T21:51:00.978Z,13.80
2023-03-29T21:54:02.831Z,14.00
2023-03-29T21:57:04.580Z,13.50
2023-03-29T22:00:12.403Z,14.00
2023-03-29T22:03:15.056Z,13.90
2023-03-29T22:06:16.853Z,14.20
2023-03-29T22:09:20.344Z,13.80
2023-03-29T22:12:22.629Z,14.30
2023-03-29T22:15:24.177Z,13.90
2023-03-29T22:18:42.850Z,13.70
2023-03-29T22:21:44.626Z,13.80
2023-03-29T22:24:46.269Z,14.30
2023-03-29T22:27:48.844Z,14.10
2023-03-29T22:30:50.563Z,15.90
2023-03-29T22:33:52.574Z,13.40
2023-03-29T22:36:54.137Z,13.60
2023-03-29T22:39:55.677Z,13.80
2023-03-29T22:42:57.335Z,14.10
2023-03-29T22:45:59.171Z,14.00
2023-03-29T22:49:01.089Z,13.90
2023-03-29T22:52:02.727Z,13.60
2023-03-29T22:55:04.566Z,15.10
2023-03-29T22:58:06.112Z,13.50
2023-03-29T23:01:08.194Z,13.90
2023-03-29T23:04:10.677Z,13.20
2023-03-29T23:07:12.331Z,13.50
2023-03-29T23:10:13.994Z,13.80
2023-03-29T23:13:20.384Z,14.80
2023-03-29T23:16:22.060Z,13.80
2023-03-29T23:19:23.798Z,13.30
2023-03-29T23:22:26.110Z,13.90
2023-03-29T23:25:27.798Z,13.60
2023-03-29T23:28:34.221Z,13.20
2023-03-29T23:31:37.583Z,14.20
2023-03-29T23:34:39.584Z,13.50
2023-03-29T23:37:41.427Z,14.70
2023-03-29T23:40:43.006Z,13.80
2023-03-29T23:43:46.964Z,14.00
2023-03-29T23:46:48.617Z,13.90
2023-03-29T23:49:50.574Z,13.90
2023-03-29T23:52:52.140Z,14.20
2023-03-29T23:56:05.389Z,15.50
2023-03-29T23:59:06.937Z,16.20
